Time;durP1;ratioP1;P1;durP2;ratioP2;P2;SDS_P1;SDS_P2;PMS_P1;PMS_P2;Temp;Humidity;BMP_temperature;BMP_pressure;BME280_temperature;BME280_humidity;BME280_pressure;Samples;Min_cycle;Max_cycle;Signal;HPM_P1;HPM_P2
2024/02/22 00:01:11;;;;;;;6.80;0.93;;;;;;;23.22;45.43;97538.47;7425385;19;20042;-54
2024/02/22 00:03:37;;;;;;;0.22;0.15;;;;;;;24.17;44.68;97541.25;7432815;19;20028;-54
2024/02/22 00:06:05;;;;;;;1.95;0.30;;;;;;;23.09;45.63;97533.41;7430846;19;20025;-54
2024/02/22 00:08:31;;;;;;;6.03;0.57;;;;;;;23.14;46.26;97518.84;7427478;19;20014;-54
2024/02/22 00:11:00;;;;;;;1.08;0.55;;;;;;;23.05;45.76;97513.28;7428068;19;20014;-54
2024/02/22 00:13:26;;;;;;;0.68;0.68;;;;;;;22.54;46.35;97518.69;7428817;19;20018;-54
2024/02/22 00:15:52;;;;;;;0.25;0.25;;;;;;;24.70;43.93;97508.63;7429437;19;20457;-54
2024/02/22 00:18:18;;;;;;;0.15;0.15;;;;;;;25.60;42.73;97500.56;7427651;19;20062;-54
2024/02/22 00:20:44;;;;;;;0.82;0.82;;;;;;;29.49;37.38;97487.31;7428066;19;20021;-54
2024/02/22 00:23:10;;;;;;;2.92;0.40;;;;;;;28.98;36.93;97475.38;7422363;19;20499;-54
2024/02/22 00:25:37;;;;;;;3.83;0.30;;;;;;;28.53;36.91;97467.97;7428379;19;20018;-54
2024/02/22 00:28:03;;;;;;;0.10;0.10;;;;;;;27.71;37.84;97450.34;7431957;19;20032;-54
2024/02/22 00:30:30;;;;;;;2.25;0.55;;;;;;;28.29;36.94;97452.72;7428061;19;20017;-54
2024/02/22 00:32:56;;;;;;;0.10;0.10;;;;;;;27.44;37.43;97447.81;7429983;19;20453;-54
2024/02/22 00:35:22;;;;;;;3.08;0.70;;;;;;;26.68;38.58;97439.41;7426677;19;20341;-54
2024/02/22 00:37:48;;;;;;;0.60;0.45;;;;;;;26.49;38.81;97432.13;7427760;19;20070;-54
2024/02/22 00:40:17;;;;;;;2.55;0.60;;;;;;;27.58;36.96;97425.50;7432503;19;20067;-54
2024/02/22 00:42:44;;;;;;;0.10;0.10;;;;;;;27.85;36.09;97419.47;7425067;19;20007;-54
2024/02/22 00:45:11;;;;;;;0.30;0.20;;;;;;;27.41;36.79;97411.94;7427301;19;20010;-54
2024/02/22 00:47:37;;;;;;;0.38;0.38;;;;;;;26.80;37.01;97400.72;7426273;19;20010;-54
2024/02/22 00:50:03;;;;;;;0.25;0.25;;;;;;;27.43;36.82;97387.03;7426864;19;20104;-54
2024/02/22 00:52:30;;;;;;;0.10;0.10;;;;;;;28.92;34.95;97386.34;7426274;19;20010;-54
2024/02/22 00:54:56;;;;;;;0.10;0.10;;;;;;;29.43;33.84;97383.84;7394950;19;20328;-54
2024/02/22 00:57:22;;;;;;;0.45;0.30;;;;;;;28.15;35.56;97383.50;7400681;19;20063;-54
2024/02/22 00:59:49;;;;;;;1.55;0.65;;;;;;;29.36;34.67;97364.97;7397709;19;20082;-54
2024/02/22 01:02:15;;;;;;;0.10;0.10;;;;;;;29.23;34.76;97368.81;7396321;19;20029;-54
2024/02/22 01:04:42;;;;;;;6.43;1.38;;;;;;;28.21;35.60;97357.97;7398050;19;20010;-54
2024/02/22 01:07:08;;;;;;;0.43;0.30;;;;;;;27.34;37.01;97359.44;7400811;19;20015;-54
2024/02/22 01:09:36;;;;;;;8.68;0.65;;;;;;;26.39;38.42;97366.03;7397620;19;20086;-54
2024/02/22 01:12:03;;;;;;;0.30;0.30;;;;;;;25.28;40.16;97352.19;7397571;19;20007;-54
2024/02/22 01:14:30;;;;;;;23.88;0.75;;;;;;;25.86;39.51;97345.00;7399181;19;20085;-54
2024/02/22 01:16:56;;;;;;;0.10;0.10;;;;;;;25.13;40.58;97330.06;7398474;19;20014;-54
2024/02/22 01:19:23;;;;;;;13.45;0.45;;;;;;;26.74;38.87;97325.47;7398524;19;20018;-54
2024/02/22 01:21:49;;;;;;;14.45;0.73;;;;;;;25.70;40.39;97312.88;7395676;19;20011;-54
2024/02/22 01:24:15;;;;;;;0.65;0.65;;;;;;;26.63;38.92;97304.28;7395255;19;20089;-54
2024/02/22 01:26:41;;;;;;;0.77;0.68;;;;;;;25.72;40.31;97307.25;7395849;19;20078;-54
2024/02/22 01:29:07;;;;;;;0.10;0.10;;;;;;;26.01;39.42;97310.78;7398979;19;20517;-54
2024/02/22 01:31:33;;;;;;;0.32;0.15;;;;;;;27.34;38.01;97295.81;7395945;19;20033;-54
2024/02/22 01:34:00;;;;;;;3.30;0.98;;;;;;;27.39;37.86;97300.34;7399636;19;20017;-54
2024/02/22 01:36:26;;;;;;;1.27;0.90;;;;;;;26.96;38.35;97290.00;7396282;19;20014;-54
2024/02/22 01:38:52;;;;;;;0.85;0.85;;;;;;;27.21;37.87;97285.28;7398276;19;20034;-53
2024/02/22 01:41:18;;;;;;;9.25;1.17;;;;;;;25.10;40.27;97274.34;7395435;19;20015;-54
2024/02/22 01:43:44;;;;;;;3.75;0.35;;;;;;;25.73;39.25;97280.94;7397680;19;20015;-54
2024/02/22 01:46:10;;;;;;;2.40;0.80;;;;;;;23.85;41.72;97276.44;7396144;19;20033;-54
2024/02/22 01:48:38;;;;;;;0.17;0.17;;;;;;;22.44;43.87;97276.94;7396045;19;20007;-54
2024/02/22 01:51:05;;;;;;;1.35;0.40;;;;;;;21.55;46.22;97282.13;7400354;19;20050;-54
2024/02/22 01:53:33;;;;;;;0.10;0.10;;;;;;;24.69;41.99;97262.31;7396512;19;20017;-54
2024/02/22 01:56:01;;;;;;;0.10;0.10;;;;;;;24.03;42.38;97263.22;7396307;19;20018;-54
2024/02/22 01:58:33;;;;;;;8.05;1.55;;;;;;;21.85;45.02;97263.47;7395280;19;20014;-54
2024/02/22 02:01:05;;;;;;;1.20;0.38;;;;;;;22.16;45.53;97261.09;7397344;19;20469;-54
2024/02/22 02:03:31;;;;;;;0.38;0.38;;;;;;;23.26;45.13;97266.06;7396051;19;20020;-54
2024/02/22 02:06:00;;;;;;;0.30;0.30;;;;;;;21.25;47.71;97249.06;7394189;19;20019;-54
2024/02/22 02:08:26;;;;;;;0.20;0.20;;;;;;;25.02;43.31;97234.09;7395745;19;20026;-53
2024/02/22 02:10:52;;;;;;;0.50;0.50;;;;;;;24.69;42.91;97236.69;7398262;19;20006;-53
2024/02/22 02:13:18;;;;;;;3.35;0.63;;;;;;;22.87;45.63;97231.22;7396113;19;20011;-54
2024/02/22 02:15:44;;;;;;;3.03;2.15;;;;;;;21.78;48.59;97228.31;7395919;19;20014;-54
2024/02/22 02:18:10;;;;;;;0.20;0.20;;;;;;;20.63;52.29;97223.13;7396059;19;20491;-54
2024/02/22 02:21:04;;;;;;;1.25;0.57;;;;;;;21.79;49.63;97218.47;7397229;19;20022;-54
2024/02/22 02:24:07;;;;;;;1.55;0.85;;;;;;;22.70;47.74;97208.97;7395696;19;20074;-54
2024/02/22 02:26:34;;;;;;;0.70;0.50;;;;;;;22.25;48.71;97186.50;7394789;19;20028;-54
2024/02/22 02:28:59;;;;;;;0.10;0.10;;;;;;;;;;7394314;19;20010;-54
2024/02/22 02:31:28;;;;;;;2.72;0.65;;;;;;;20.50;52.38;97161.47;7398054;19;20037;-53
2024/02/22 02:33:54;;;;;;;0.10;0.08;;;;;;;20.96;52.89;97172.19;7394972;19;20010;-54
2024/02/22 02:36:20;;;;;;;6.82;0.40;;;;;;;21.63;50.81;97145.94;7394512;19;20097;-53
2024/02/22 02:38:46;;;;;;;3.40;0.75;;;;;;;21.55;50.81;97128.47;7396541;19;20015;-53
2024/02/22 02:41:12;;;;;;;6.13;0.52;;;;;;;20.54;53.37;97150.44;7397374;19;20070;-54
2024/02/22 02:43:38;;;;;;;1.23;0.55;;;;;;;20.79;54.00;97147.06;7396259;19;20014;-53
2024/02/22 02:46:04;;;;;;;3.42;0.63;;;;;;;20.62;55.20;97136.78;7394315;19;20036;-53
2024/02/22 02:48:30;;;;;;;0.17;0.17;;;;;;;21.37;53.96;97138.66;7394659;19;20011;-54
2024/02/22 02:50:58;;;;;;;0.20;0.15;;;;;;;20.47;56.73;97144.97;7394744;19;20007;-53
2024/02/22 02:53:24;;;;;;;0.30;0.30;;;;;;;23.12;51.25;97134.66;7395012;19;20014;-54
2024/02/22 02:55:51;;;;;;;6.40;1.33;;;;;;;22.14;52.18;97147.56;7394956;19;20070;-54
2024/02/22 02:58:17;;;;;;;2.08;1.42;;;;;;;22.78;51.06;97133.53;7394305;19;20023;-54
2024/02/22 03:00:43;;;;;;;8.48;0.85;;;;;;;25.60;45.90;97112.88;7392958;19;20521;-54
2024/02/22 03:03:09;;;;;;;13.73;0.55;;;;;;;22.70;50.74;97121.00;7395802;19;20014;-54
2024/02/22 03:05:38;;;;;;;0.10;0.10;;;;;;;21.71;54.64;97112.41;7392944;19;20522;-54
2024/02/22 03:08:05;;;;;;;21.55;1.80;;;;;;;20.72;57.78;97103.50;7393794;19;20015;-54
2024/02/22 03:10:31;;;;;;;0.45;0.45;;;;;;;22.37;52.70;97090.06;7393567;19;20488;-54
2024/02/22 03:12:57;;;;;;;2.38;0.73;;;;;;;21.34;55.73;97086.09;7397742;19;20331;-53
2024/02/22 03:15:23;;;;;;;0.52;0.22;;;;;;;21.00;57.82;97076.97;7393108;19;20014;-53
2024/02/22 03:17:49;;;;;;;2.47;1.33;;;;;;;20.91;59.75;97077.09;7392999;19;20010;-54
2024/02/22 03:20:17;;;;;;;2.55;0.50;;;;;;;20.55;60.78;97057.84;7393537;19;20019;-53
2024/02/22 03:22:43;;;;;;;0.30;0.30;;;;;;;20.84;61.04;97042.03;7394630;19;20489;-54
2024/02/22 03:25:09;;;;;;;0.57;0.57;;;;;;;20.45;63.39;97032.50;7393717;19;20028;-53
2024/02/22 03:27:36;;;;;;;4.35;0.65;;;;;;;22.16;57.58;97022.94;7392715;19;20027;-53
2024/02/22 03:30:05;;;;;;;1.30;0.82;;;;;;;22.24;56.80;97003.56;7392238;19;20026;-56
2024/02/22 03:32:31;;;;;;;0.20;0.20;;;;;;;22.02;57.34;97004.41;7393552;19;20019;-53
2024/02/22 03:34:58;;;;;;;2.90;1.65;;;;;;;23.58;53.92;96983.00;7391801;19;20018;-54
2024/02/22 03:37:24;;;;;;;3.30;0.90;;;;;;;21.57;57.56;96981.28;7392248;19;20098;-54
2024/02/22 03:39:50;;;;;;;6.75;0.98;;;;;;;22.15;57.56;96973.31;7394850;19;20474;-53
2024/02/22 03:42:17;;;;;;;0.45;0.20;;;;;;;22.19;57.03;96956.50;7393938;19;20074;-53
2024/02/22 03:44:43;;;;;;;4.22;0.25;;;;;;;24.90;52.31;96937.41;7398122;19;20031;-54
2024/02/22 03:47:09;;;;;;;1.60;0.43;;;;;;;24.58;50.60;96933.81;7394147;19;20018;-53
2024/02/22 03:49:35;;;;;;;0.65;0.65;;;;;;;23.92;51.32;96931.41;7393230;19;20021;-53
2024/02/22 03:52:02;;;;;;;19.52;1.30;;;;;;;23.60;52.07;96920.59;7392665;19;20386;-54
2024/02/22 03:54:28;;;;;;;4.97;0.40;;;;;;;24.15;50.92;96921.84;7392741;19;20010;-53
2024/02/22 03:56:54;;;;;;;4.85;1.02;;;;;;;25.35;48.90;96908.72;7392183;19;20015;-54
2024/02/22 03:59:20;;;;;;;5.18;0.65;;;;;;;25.11;48.18;96891.31;7392126;19;20339;-54
2024/02/22 04:01:46;;;;;;;5.82;1.05;;;;;;;25.03;48.45;96882.44;7391736;19;20082;-54
2024/02/22 04:04:12;;;;;;;0.10;0.10;;;;;;;24.07;49.23;96867.44;7394876;19;20027;-54
2024/02/22 04:06:38;;;;;;;0.55;0.55;;;;;;;25.33;47.68;96866.63;7392509;19;20032;-54
2024/02/22 04:09:06;;;;;;;0.57;0.30;;;;;;;24.19;49.16;96858.75;7392808;19;20021;-54
2024/02/22 04:11:32;;;;;;;2.65;0.20;;;;;;;23.73;50.70;96862.97;7392899;19;20050;-54
2024/02/22 04:13:59;;;;;;;3.00;0.68;;;;;;;25.41;47.90;96852.69;7392304;19;20014;-53
2024/02/22 04:16:25;;;;;;;0.90;0.90;;;;;;;24.70;48.54;96834.00;7392036;19;20028;-53
2024/02/22 04:18:51;;;;;;;0.40;0.40;;;;;;;23.97;50.63;96824.31;7391958;19;20663;-53
2024/02/22 04:21:17;;;;;;;3.72;0.45;;;;;;;25.45;47.14;96809.41;7391663;19;20793;-53
2024/02/22 04:23:43;;;;;;;1.45;0.30;;;;;;;24.03;49.83;96799.75;7393429;19;20011;-54
2024/02/22 04:26:10;;;;;;;2.47;0.75;;;;;;;23.69;50.83;96800.97;7391441;19;20021;-54
2024/02/22 04:28:37;;;;;;;0.10;0.10;;;;;;;23.60;51.04;96787.06;7391875;19;20077;-54
2024/02/22 04:31:04;;;;;;;0.10;0.00;;;;;;;23.46;52.38;96783.53;7398442;19;20536;-55
2024/02/22 04:33:32;;;;;;;0.13;0.13;;;;;;;23.76;51.31;96787.78;7398460;19;20469;-54
2024/02/22 04:35:59;;;;;;;2.20;1.65;;;;;;;23.76;51.01;96776.41;7398690;19;20011;-53
2024/02/22 04:38:25;;;;;;;0.77;0.77;;;;;;;23.39;52.64;96756.25;7399364;19;20026;-54
2024/02/22 04:40:51;;;;;;;4.13;0.57;;;;;;;23.14;53.38;96755.06;7398614;19;20082;-56
2024/02/22 04:43:17;;;;;;;0.30;0.10;;;;;;;23.83;52.06;96744.81;7397302;19;20010;-55
2024/02/22 04:45:44;;;;;;;0.47;0.32;;;;;;;26.36;47.67;96722.31;7402309;19;20010;-55
2024/02/22 04:48:10;;;;;;;0.38;0.10;;;;;;;24.43;50.39;96714.75;7398090;19;20018;-56
2024/02/22 04:50:36;;;;;;;5.32;0.75;;;;;;;25.97;48.67;96705.19;7399455;19;20085;-53
2024/02/22 04:53:06;;;;;;;5.20;0.43;;;;;;;32.09;38.56;96686.63;7398123;19;20027;-55
2024/02/22 04:55:32;;;;;;;1.00;0.20;;;;;;;30.40;38.55;96686.84;7401206;19;20032;-56
2024/02/22 04:58:04;;;;;;;1.17;0.50;;;;;;;29.38;39.55;96678.94;7398464;19;20007;-55
2024/02/22 05:00:30;;;;;;;0.82;0.40;;;;;;;29.97;38.87;96668.03;7398240;19;20037;-55
2024/02/22 05:02:56;;;;;;;2.05;1.38;;;;;;;30.22;38.12;96665.66;7395435;19;20011;-55
2024/02/22 05:05:22;;;;;;;5.72;1.40;;;;;;;29.38;38.95;96662.47;7400143;19;20011;-55
2024/02/22 05:07:48;;;;;;;4.22;0.25;;;;;;;29.09;39.76;96666.06;7398237;19;20015;-54
2024/02/22 05:10:15;;;;;;;0.55;0.20;;;;;;;28.64;39.34;96652.09;7398198;19;20395;-54
2024/02/22 05:12:41;;;;;;;0.35;0.20;;;;;;;29.08;38.78;96656.03;7397635;19;20521;-54
2024/02/22 05:15:10;;;;;;;2.00;0.57;;;;;;;29.43;38.74;96681.25;7402548;19;20498;-54
2024/02/22 05:17:39;;;;;;;1.20;0.32;;;;;;;29.68;38.31;96700.41;7397246;19;20011;-53
2024/02/22 05:20:07;;;;;;;1.60;0.65;;;;;;;29.65;37.73;96707.50;7396878;19;20017;-54
2024/02/22 05:22:33;;;;;;;6.50;0.30;;;;;;;29.33;38.68;96703.19;7394726;19;20354;-54
2024/02/22 05:24:59;;;;;;;0.43;0.43;;;;;;;30.48;35.97;96700.63;7397245;19;20014;-54
2024/02/22 05:27:25;;;;;;;1.23;0.22;;;;;;;30.36;35.29;96689.66;7398851;19;20113;-54
2024/02/22 05:29:51;;;;;;;0.20;0.20;;;;;;;31.99;33.37;96700.88;7396881;19;20077;-55
2024/02/22 05:32:17;;;;;;;0.10;0.10;;;;;;;32.30;32.72;96704.84;7397011;19;20019;-54
2024/02/22 05:34:43;;;;;;;0.10;0.10;;;;;;;32.47;31.99;96700.75;7397166;19;20046;-54
2024/02/22 05:37:11;;;;;;;0.13;0.13;;;;;;;32.88;31.83;96696.81;7396056;19;20014;-53
2024/02/22 05:39:37;;;;;;;0.38;0.38;;;;;;;33.75;30.28;96688.81;7399536;19;20026;-55
2024/02/22 05:42:04;;;;;;;0.10;0.08;;;;;;;34.38;29.02;96692.00;7395607;19;20027;-55
2024/02/22 05:44:31;;;;;;;4.68;0.25;;;;;;;32.81;30.59;96675.13;7400456;19;20015;-55
2024/02/22 05:46:57;;;;;;;0.20;0.20;;;;;;;32.49;30.41;96669.06;7397033;19;20010;-55
2024/02/22 05:49:24;;;;;;;0.30;0.20;;;;;;;32.30;30.65;96686.84;7396562;19;20011;-55
2024/02/22 05:51:50;;;;;;;0.10;0.10;;;;;;;31.58;31.41;96698.19;7397830;19;20011;-55
2024/02/22 05:54:17;;;;;;;0.63;0.38;;;;;;;30.34;32.54;96700.38;7395019;19;20040;-55
2024/02/22 05:56:43;;;;;;;0.30;0.30;;;;;;;28.90;33.88;96678.50;7394814;19;20461;-55
2024/02/22 05:59:09;;;;;;;0.10;0.10;;;;;;;29.05;34.42;96657.38;7396100;19;20022;-55
2024/02/22 06:01:35;;;;;;;0.10;0.10;;;;;;;29.66;33.64;96656.63;7397483;19;20505;-54
2024/02/22 06:04:03;;;;;;;0.10;0.00;;;;;;;30.90;32.46;96649.69;7396499;19;20036;-55
2024/02/22 06:06:29;;;;;;;0.10;0.10;;;;;;;31.01;32.25;96631.16;7395221;19;20408;-54
2024/02/22 06:08:55;;;;;;;0.10;0.10;;;;;;;31.63;31.33;96631.34;7395228;19;20015;-53
2024/02/22 06:11:21;;;;;;;0.15;0.15;;;;;;;31.61;31.19;96624.81;7395536;19;20020;-54
2024/02/22 06:13:47;;;;;;;1.02;0.50;;;;;;;31.54;31.63;96611.78;7397233;19;20006;-54
2024/02/22 06:16:14;;;;;;;0.10;0.10;;;;;;;31.33;31.71;96611.50;7395772;19;20014;-53
2024/02/22 06:18:40;;;;;;;0.10;0.10;;;;;;;30.11;32.55;96615.19;7395871;19;20011;-53
2024/02/22 06:21:07;;;;;;;8.40;0.32;;;;;;;29.96;32.11;96620.69;7395499;19;20571;-53
2024/02/22 06:23:36;;;;;;;0.10;0.10;;;;;;;30.12;32.37;96637.50;7397837;19;20348;-54
2024/02/22 06:26:03;;;;;;;0.10;0.10;;;;;;;30.18;32.39;96645.47;7395350;19;20038;-53
2024/02/22 06:28:30;;;;;;;1.23;0.17;;;;;;;29.61;32.82;96644.31;7395756;19;20126;-53
2024/02/22 06:30:56;;;;;;;0.10;0.00;;;;;;;29.23;33.29;96663.56;7394396;19;20014;-53
2024/02/22 06:33:22;;;;;;;0.10;0.10;;;;;;;32.10;30.91;96659.28;7397278;19;20046;-53
2024/02/22 06:35:49;;;;;;;0.10;0.10;;;;;;;32.61;30.06;96663.44;7394427;19;20010;-53
2024/02/22 06:38:16;;;;;;;0.10;0.00;;;;;;;32.88;29.52;96670.88;7395403;19;20007;-53
2024/02/22 06:40:49;;;;;;;0.43;0.20;;;;;;;33.44;29.04;96655.44;7395227;19;20450;-53
2024/02/22 06:43:19;;;;;;;2.03;0.60;;;;;;;34.12;28.61;96660.84;7394106;19;20022;-53
2024/02/22 06:45:45;;;;;;;6.70;1.38;;;;;;;34.99;28.17;96647.28;7393844;19;20327;-53
2024/02/22 06:48:11;;;;;;;0.35;0.35;;;;;;;35.36;27.36;96634.25;7394727;19;20038;-53
2024/02/22 06:50:37;;;;;;;0.20;0.20;;;;;;;35.32;27.27;96613.25;7392736;19;20457;-54
2024/02/22 06:53:03;;;;;;;0.85;0.32;;;;;;;35.45;27.47;96603.09;7396033;19;20018;-54
2024/02/22 06:55:31;;;;;;;1.08;0.32;;;;;;;35.50;27.09;96579.22;7394326;19;20018;-53
2024/02/22 06:57:57;;;;;;;0.10;0.10;;;;;;;35.47;27.04;96563.28;7395315;19;20014;-53
2024/02/22 07:00:24;;;;;;;0.15;0.15;;;;;;;35.82;26.73;96560.28;7393429;19;20014;-53
2024/02/22 07:02:50;;;;;;;0.10;0.10;;;;;;;36.38;26.09;96560.66;7393599;19;20098;-53
2024/02/22 07:05:16;;;;;;;0.20;0.20;;;;;;;36.01;26.53;96538.44;7393740;19;20021;-53
2024/02/22 07:07:42;;;;;;;0.10;0.10;;;;;;;36.17;26.22;96532.56;7394226;19;20026;-53
2024/02/22 07:10:13;;;;;;;0.10;0.10;;;;;;;36.86;25.67;96532.72;7394132;19;20010;-53
2024/02/22 07:12:41;;;;;;;0.10;0.10;;;;;;;36.83;25.14;96528.41;7393868;19;20011;-53
2024/02/22 07:15:08;;;;;;;0.10;0.10;;;;;;;36.82;25.46;96516.06;7393229;19;20014;-53
2024/02/22 07:17:34;;;;;;;0.30;0.30;;;;;;;36.86;25.10;96500.81;7393528;19;20014;-53
2024/02/22 07:20:00;;;;;;;2.28;0.60;;;;;;;37.19;25.13;96482.31;7391341;19;20014;-53
2024/02/22 07:22:26;;;;;;;0.10;0.10;;;;;;;37.43;24.64;96474.78;7394242;19;20371;-53
2024/02/22 07:24:52;;;;;;;3.50;0.25;;;;;;;37.28;24.44;96488.03;7393530;19;20014;-53
2024/02/22 07:27:18;;;;;;;0.10;0.10;;;;;;;37.58;24.69;96473.88;7392901;19;20010;-53
2024/02/22 07:29:44;;;;;;;0.10;0.10;;;;;;;37.74;24.78;96481.63;7393290;19;20006;-53
2024/02/22 07:32:11;;;;;;;0.25;0.25;;;;;;;37.81;24.41;96491.75;7392326;19;20018;-54
2024/02/22 07:34:37;;;;;;;0.10;0.10;;;;;;;37.63;24.50;96483.25;7396790;19;20010;-54
2024/02/22 07:37:03;;;;;;;0.10;0.10;;;;;;;37.72;24.39;96470.06;7391713;19;20362;-54
2024/02/22 07:39:29;;;;;;;0.10;0.10;;;;;;;37.27;24.87;96474.97;7395605;19;20312;-54
2024/02/22 07:41:55;;;;;;;0.10;0.10;;;;;;;37.24;24.62;96454.69;7392069;19;20504;-54
2024/02/22 07:44:21;;;;;;;0.10;0.10;;;;;;;37.58;24.43;96441.19;7395230;19;20018;-55
2024/02/22 07:46:47;;;;;;;0.57;0.20;;;;;;;37.80;24.37;96435.09;7394475;19;20017;-55
2024/02/22 07:49:15;;;;;;;0.10;0.10;;;;;;;37.70;24.56;96427.22;7391610;19;20015;-55
2024/02/22 07:51:41;;;;;;;0.10;0.10;;;;;;;37.63;24.25;96399.72;7391958;19;20378;-54
2024/02/22 07:54:08;;;;;;;0.10;0.00;;;;;;;37.60;24.22;96388.91;7394321;19;20016;-53
2024/02/22 07:56:39;;;;;;;0.10;0.10;;;;;;;37.45;24.56;96367.34;7392051;19;20023;-55
2024/02/22 07:59:05;;;;;;;0.10;0.00;;;;;;;36.92;24.65;96355.72;7391027;19;20011;-53
2024/02/22 08:01:31;;;;;;;0.10;0.00;;;;;;;37.12;24.19;96324.22;7391389;19;20028;-54
2024/02/22 08:03:57;;;;;;;0.13;0.13;;;;;;;36.65;23.95;96271.16;7397185;19;20365;-53
2024/02/22 08:06:23;;;;;;;0.10;0.10;;;;;;;35.92;24.36;96241.56;7398926;19;20011;-53
2024/02/22 08:08:50;;;;;;;0.10;0.10;;;;;;;35.40;24.69;96220.31;7399184;19;20089;-53
2024/02/22 08:11:17;;;;;;;0.10;0.00;;;;;;;36.13;24.85;96225.41;7400235;19;20026;-53
2024/02/22 08:13:44;;;;;;;0.40;0.10;;;;;;;36.28;24.45;96207.13;7401424;19;20342;-54
2024/02/22 08:16:11;;;;;;;0.10;0.10;;;;;;;36.42;24.31;96185.94;7398845;19;20011;-54
2024/02/22 08:18:38;;;;;;;0.10;0.10;;;;;;;36.37;23.83;96202.66;7399055;19;20014;-54
2024/02/22 08:21:06;;;;;;;0.20;0.10;;;;;;;36.43;24.19;96210.56;7398670;19;20011;-53
2024/02/22 08:23:33;;;;;;;0.10;0.10;;;;;;;35.96;23.93;96235.75;7399003;19;20014;-55
2024/02/22 08:26:00;;;;;;;0.20;0.20;;;;;;;36.01;24.01;96254.53;7399488;19;20010;-55
2024/02/22 08:28:27;;;;;;;0.10;0.10;;;;;;;36.96;23.48;96266.44;7399171;19;20011;-55
2024/02/22 08:30:54;;;;;;;0.20;0.10;;;;;;;37.36;23.46;96261.50;7399033;19;20016;-55
2024/02/22 08:33:24;;;;;;;0.75;0.57;;;;;;;37.49;23.57;96245.31;7400650;19;20011;-55
2024/02/22 08:35:50;;;;;;;0.50;0.50;;;;;;;38.16;23.08;96207.78;7398673;19;20434;-55
2024/02/22 08:38:17;;;;;;;0.20;0.20;;;;;;;38.01;23.34;96258.94;7399696;19;20691;-56
2024/02/22 08:40:44;;;;;;;1.38;0.10;;;;;;;38.35;23.12;96263.41;7398522;19;20007;-56
2024/02/22 08:43:10;;;;;;;0.30;0.30;;;;;;;38.29;22.77;96258.41;7397384;19;20014;-54
2024/02/22 08:45:36;;;;;;;0.10;0.10;;;;;;;38.35;22.58;96275.75;7398708;19;20461;-56
2024/02/22 08:48:03;;;;;;;0.85;0.40;;;;;;;38.75;22.04;96290.97;7400376;19;20024;-55
2024/02/22 08:50:29;;;;;;;1.02;0.30;;;;;;;38.87;22.12;96284.88;7399971;19;20089;-55
2024/02/22 08:52:55;;;;;;;2.17;1.33;;;;;;;39.19;22.29;96284.19;7400130;19;20015;-55
2024/02/22 08:55:22;;;;;;;0.30;0.30;;;;;;;21.34;36.85;96321.75;7397745;19;20010;-55
2024/02/22 08:57:48;;;;;;;0.10;0.10;;;;;;;12.01;100.00;96340.47;7398059;19;20029;-55
2024/02/22 09:00:15;;;;;;;0.47;0.43;;;;;;;9.36;100.00;96342.53;7398330;19;20007;-55
2024/02/22 09:02:41;;;;;;;0.20;0.10;;;;;;;8.29;100.00;96348.97;7397035;19;20470;-55
2024/02/22 09:05:08;;;;;;;0.95;0.30;;;;;;;7.70;100.00;96350.72;7397414;19;20010;-55
2024/02/22 09:07:35;;;;;;;0.50;0.50;;;;;;;7.35;100.00;96349.28;7395653;19;20472;-55
2024/02/22 09:10:04;;;;;;;0.20;0.20;;;;;;;7.54;100.00;96363.66;7395868;19;20011;-55
2024/02/22 09:12:30;;;;;;;2.78;0.35;;;;;;;25.86;58.84;96330.56;7396072;19;20010;-55
2024/02/22 09:14:56;;;;;;;0.20;0.13;;;;;;;32.01;35.21;96312.22;7400016;19;20036;-55
2024/02/22 09:17:22;;;;;;;5.43;0.32;;;;;;;33.79;31.39;96289.69;7396334;19;20024;-55
2024/02/22 09:19:52;;;;;;;0.38;0.28;;;;;;;34.51;30.02;96271.50;7396935;19;20080;-55
2024/02/22 09:22:20;;;;;;;1.00;0.28;;;;;;;35.09;28.56;96285.66;7395841;19;20022;-55
2024/02/22 09:24:46;;;;;;;2.15;0.55;;;;;;;35.45;28.09;96293.38;7400810;19;20470;-55
2024/02/22 09:27:14;;;;;;;2.08;0.47;;;;;;;35.67;27.39;96270.75;7397934;19;20011;-55
2024/02/22 09:29:42;;;;;;;0.15;0.15;;;;;;;35.74;27.04;96269.25;7396727;19;20015;-55
2024/02/22 09:32:09;;;;;;;0.50;0.32;;;;;;;36.05;26.63;96237.09;7395432;19;20346;-55
2024/02/22 09:34:39;;;;;;;8.50;1.98;;;;;;;36.14;26.61;96238.44;7400066;19;20389;-55
2024/02/22 09:37:05;;;;;;;0.17;0.17;;;;;;;35.86;25.88;96241.63;7396842;19;20040;-55
2024/02/22 09:39:33;;;;;;;0.20;0.20;;;;;;;35.65;25.98;96232.41;7400542;19;20007;-55
2024/02/22 09:41:59;;;;;;;2.72;0.22;;;;;;;35.53;25.57;96213.00;7396718;19;20471;-55
2024/02/22 09:44:27;;;;;;;16.70;0.75;;;;;;;35.58;25.53;96240.47;7397041;19;20466;-55
2024/02/22 09:46:54;;;;;;;1.20;0.45;;;;;;;35.86;25.35;96244.53;7396026;19;20014;-55
2024/02/22 09:49:21;;;;;;;0.30;0.30;;;;;;;35.97;25.70;96248.78;7396983;19;20477;-55
2024/02/22 09:51:51;;;;;;;0.45;0.45;;;;;;;36.08;25.43;96236.34;7396890;19;20018;-55
2024/02/22 09:54:18;;;;;;;0.35;0.35;;;;;;;36.16;25.07;96212.34;7399524;19;20006;-55
2024/02/22 09:56:47;;;;;;;0.88;0.20;;;;;;;36.18;24.91;96200.72;7395779;19;20474;-55
2024/02/22 09:59:13;;;;;;;0.10;0.10;;;;;;;36.27;25.07;96199.16;7395050;19;20018;-55
2024/02/22 10:01:40;;;;;;;0.20;0.13;;;;;;;36.30;24.87;96191.91;7395780;19;20458;-55
2024/02/22 10:04:23;;;;;;;0.70;0.57;;;;;;;36.40;25.16;96177.97;7399087;19;20007;-55
2024/02/22 10:06:50;;;;;;;0.15;0.10;;;;;;;36.66;25.12;96171.13;7395642;19;20010;-55
2024/02/22 10:09:16;;;;;;;1.33;0.20;;;;;;;36.93;24.79;96151.88;7396199;19;20045;-55
2024/02/22 10:11:44;;;;;;;0.20;0.20;;;;;;;37.01;24.61;96134.34;7396083;19;20028;-55
2024/02/22 10:14:14;;;;;;;0.10;0.10;;;;;;;36.78;24.65;96149.91;7398057;19;20031;-56
2024/02/22 10:16:41;;;;;;;0.20;0.10;;;;;;;36.50;25.02;96127.84;7395566;19;20014;-56
2024/02/22 10:19:12;;;;;;;0.45;0.10;;;;;;;36.62;24.93;96147.97;7395723;19;20014;-55
2024/02/22 10:21:38;;;;;;;0.75;0.20;;;;;;;36.54;24.70;96156.78;7395410;19;20010;-55
2024/02/22 10:24:05;;;;;;;0.52;0.35;;;;;;;36.69;24.38;96151.50;7396004;19;20015;-55
2024/02/22 10:26:31;;;;;;;0.45;0.45;;;;;;;36.82;24.55;96141.84;7392316;19;20074;-55
2024/02/22 10:29:06;;;;;;;0.10;0.10;;;;;;;37.18;24.40;96161.63;7394793;19;20022;-55
2024/02/22 10:31:34;;;;;;;0.20;0.20;;;;;;;37.01;24.13;96169.16;7394160;19;20028;-55
2024/02/22 10:34:02;;;;;;;0.30;0.30;;;;;;;36.99;24.36;96166.28;7397193;19;20010;-55
2024/02/22 10:36:28;;;;;;;0.85;0.10;;;;;;;36.91;24.29;96166.41;7394535;19;20006;-55
2024/02/22 10:38:54;;;;;;;0.10;0.10;;;;;;;36.94;24.33;96170.72;7396699;19;20100;-55
2024/02/22 10:41:22;;;;;;;0.22;0.10;;;;;;;36.95;24.43;96169.25;7393275;19;20018;-55
2024/02/22 10:43:50;;;;;;;0.88;0.22;;;;;;;37.34;24.15;96168.63;7395632;19;20078;-55
2024/02/22 10:46:18;;;;;;;0.10;0.10;;;;;;;37.23;24.15;96168.06;7396989;19;20010;-55
2024/02/22 10:48:53;;;;;;;0.20;0.20;;;;;;;37.14;23.77;96150.06;7394732;19;20066;-55
2024/02/22 10:51:22;;;;;;;0.13;0.13;;;;;;;37.02;23.84;96150.28;7394534;19;20040;-55
2024/02/22 10:53:53;;;;;;;0.85;0.22;;;;;;;37.22;23.76;96144.13;7394368;19;20011;-55
2024/02/22 10:56:24;;;;;;;0.30;0.30;;;;;;;37.33;23.66;96135.25;7395537;19;20042;-56
2024/02/22 10:59:02;;;;;;;0.13;0.13;;;;;;;37.21;23.99;96142.69;7393204;19;20011;-56
2024/02/22 11:01:30;;;;;;;0.60;0.50;;;;;;;37.22;23.70;96143.41;7394157;19;20018;-55
2024/02/22 11:03:57;;;;;;;0.20;0.10;;;;;;;37.16;24.28;96150.06;7393793;19;20031;-56
2024/02/22 11:06:23;;;;;;;0.30;0.30;;;;;;;37.45;23.68;96140.88;7394571;19;20564;-56
2024/02/22 11:08:52;;;;;;;0.82;0.47;;;;;;;37.65;23.54;96123.03;7393572;19;20020;-56
2024/02/22 11:11:30;;;;;;;0.73;0.32;;;;;;;38.11;23.58;96130.13;7393901;19;20038;-55
2024/02/22 11:13:57;;;;;;;0.10;0.10;;;;;;;38.35;23.39;96123.84;7396236;19;20358;-56
2024/02/22 11:16:32;;;;;;;0.13;0.13;;;;;;;38.53;23.55;96121.22;7394449;19;20010;-55
2024/02/22 11:19:09;;;;;;;0.80;0.47;;;;;;;38.58;23.52;96110.94;7393510;19;20354;-55
2024/02/22 11:21:42;;;;;;;0.25;0.25;;;;;;;38.44;22.99;96102.50;7393388;19;20045;-55
2024/02/22 11:24:12;;;;;;;0.90;0.32;;;;;;;38.36;23.23;96108.53;7391805;19;20429;-55
2024/02/22 11:26:40;;;;;;;0.20;0.20;;;;;;;38.32;23.30;96107.91;7394651;19;20070;-56
2024/02/22 11:29:06;;;;;;;0.35;0.32;;;;;;;38.08;22.91;96100.41;7391736;19;20709;-56
2024/02/22 11:31:35;;;;;;;1.38;0.63;;;;;;;38.03;23.12;96096.16;7391721;19;20010;-56
2024/02/22 11:34:02;;;;;;;2.90;0.63;;;;;;;38.07;23.30;96084.44;7393825;19;20342;-56